sensor_id;sensor_type;location;lat;lon;timestamp;temperature;humidity
2721;DHT22;1368;49.484;11.112;2022-11-03T00:00:00;6.10;99.90
2721;DHT22;1368;49.484;11.112;2022-11-03T00:02:26;6.10;99.90
2721;DHT22;1368;49.484;11.112;2022-11-03T00:04:51;6.60;99.90
2721;DHT22;1368;49.484;11.112;2022-11-03T00:07:20;6.30;99.90
2721;DHT22;1368;49.484;11.112;2022-11-03T00:09:46;6.30;99.90
2721;DHT22;1368;49.484;11.112;2022-11-03T00:12:12;6.40;99.90
2721;DHT22;1368;49.484;11.112;2022-11-03T00:14:37;6.40;99.90
2721;DHT22;1368;49.484;11.112;2022-11-03T00:17:03;6.30;99.90
2721;DHT22;1368;49.484;11.112;2022-11-03T00:19:28;6.30;99.90
2721;DHT22;1368;49.484;11.112;2022-11-03T00:21:54;6.40;99.90
2721;DHT22;1368;49.484;11.112;2022-11-03T00:24:22;6.50;99.90
2721;DHT22;1368;49.484;11.112;2022-11-03T00:26:48;6.50;99.90
2721;DHT22;1368;49.484;11.112;2022-11-03T00:29:14;6.50;99.90
2721;DHT22;1368;49.484;11.112;2022-11-03T00:31:42;6.30;99.90
2721;DHT22;1368;49.484;11.112;2022-11-03T00:34:08;6.10;99.90
2721;DHT22;1368;49.484;11.112;2022-11-03T00:36:39;6.20;99.90
2721;DHT22;1368;49.484;11.112;2022-11-03T00:39:05;6.40;99.90
2721;DHT22;1368;49.484;11.112;2022-11-03T00:41:31;6.20;99.90
2721;DHT22;1368;49.484;11.112;2022-11-03T00:43:57;6.10;99.90
2721;DHT22;1368;49.484;11.112;2022-11-03T00:46:23;6.20;99.90
2721;DHT22;1368;49.484;11.112;2022-11-03T00:48:50;6.20;99.90
2721;DHT22;1368;49.484;11.112;2022-11-03T00:51:23;6.20;99.90
2721;DHT22;1368;49.484;11.112;2022-11-03T00:56:23;6.10;99.90
2721;DHT22;1368;49.484;11.112;2022-11-03T00:58:49;5.90;99.90
2721;DHT22;1368;49.484;11.112;2022-11-03T01:01:18;5.90;99.90
2721;DHT22;1368;49.484;11.112;2022-11-03T01:03:46;5.90;99.90
2721;DHT22;1368;49.484;11.112;2022-11-03T01:06:32;5.90;99.90
2721;DHT22;1368;49.484;11.112;2022-11-03T01:09:22;6.10;99.90
2721;DHT22;1368;49.484;11.112;2022-11-03T01:12:14;6.30;99.90
2721;DHT22;1368;49.484;11.112;2022-11-03T01:14:41;6.30;99.90
2721;DHT22;1368;49.484;11.112;2022-11-03T01:17:13;6.40;99.90
2721;DHT22;1368;49.484;11.112;2022-11-03T01:19:38;6.40;99.90
2721;DHT22;1368;49.484;11.112;2022-11-03T01:22:04;6.30;99.90
2721;DHT22;1368;49.484;11.112;2022-11-03T01:24:30;6.30;99.90
2721;DHT22;1368;49.484;11.112;2022-11-03T01:26:56;6.10;99.90
2721;DHT22;1368;49.484;11.112;2022-11-03T01:29:21;5.90;99.90
2721;DHT22;1368;49.484;11.112;2022-11-03T01:31:47;5.70;99.90
2721;DHT22;1368;49.484;11.112;2022-11-03T01:34:15;5.70;99.90
2721;DHT22;1368;49.484;11.112;2022-11-03T01:36:41;5.90;99.90
2721;DHT22;1368;49.484;11.112;2022-11-03T01:39:09;6.10;99.90
2721;DHT22;1368;49.484;11.112;2022-11-03T01:41:36;6.00;99.90
2721;DHT22;1368;49.484;11.112;2022-11-03T01:46:41;6.00;99.90
2721;DHT22;1368;49.484;11.112;2022-11-03T01:49:16;6.00;99.90
2721;DHT22;1368;49.484;11.112;2022-11-03T01:51:46;6.10;99.90
2721;DHT22;1368;49.484;11.112;2022-11-03T01:54:16;6.20;99.90
2721;DHT22;1368;49.484;11.112;2022-11-03T01:56:44;6.20;99.90
2721;DHT22;1368;49.484;11.112;2022-11-03T01:59:12;6.20;99.90
2721;DHT22;1368;49.484;11.112;2022-11-03T02:01:39;6.20;99.90
2721;DHT22;1368;49.484;11.112;2022-11-03T02:04:11;6.20;99.90
2721;DHT22;1368;49.484;11.112;2022-11-03T02:06:37;6.10;99.90
2721;DHT22;1368;49.484;11.112;2022-11-03T02:09:05;6.10;99.90
2721;DHT22;1368;49.484;11.112;2022-11-03T02:11:32;6.00;99.90
2721;DHT22;1368;49.484;11.112;2022-11-03T02:14:16;6.00;99.90
2721;DHT22;1368;49.484;11.112;2022-11-03T02:16:46;5.90;99.90
2721;DHT22;1368;49.484;11.112;2022-11-03T02:24:49;5.80;99.90
2721;DHT22;1368;49.484;11.112;2022-11-03T02:27:16;5.80;99.90
2721;DHT22;1368;49.484;11.112;2022-11-03T02:29:41;5.70;99.90
2721;DHT22;1368;49.484;11.112;2022-11-03T02:32:14;5.70;99.90
2721;DHT22;1368;49.484;11.112;2022-11-03T02:34:50;5.70;99.90
2721;DHT22;1368;49.484;11.112;2022-11-03T02:37:24;5.90;99.90
2721;DHT22;1368;49.484;11.112;2022-11-03T02:39:58;5.40;99.90
2721;DHT22;1368;49.484;11.112;2022-11-03T02:42:26;5.50;99.90
2721;DHT22;1368;49.484;11.112;2022-11-03T02:44:53;5.50;99.90
2721;DHT22;1368;49.484;11.112;2022-11-03T02:47:22;5.40;99.90
2721;DHT22;1368;49.484;11.112;2022-11-03T02:49:52;5.40;99.90
2721;DHT22;1368;49.484;11.112;2022-11-03T02:52:37;5.50;99.90
2721;DHT22;1368;49.484;11.112;2022-11-03T02:55:28;5.40;99.90
2721;DHT22;1368;49.484;11.112;2022-11-03T03:00:38;5.10;99.90
2721;DHT22;1368;49.484;11.112;2022-11-03T03:03:10;5.00;99.90
2721;DHT22;1368;49.484;11.112;2022-11-03T03:05:40;4.80;99.90
2721;DHT22;1368;49.484;11.112;2022-11-03T03:08:08;4.80;99.90
2721;DHT22;1368;49.484;11.112;2022-11-03T03:10:39;5.20;99.90
2721;DHT22;1368;49.484;11.112;2022-11-03T03:13:06;5.20;99.90
2721;DHT22;1368;49.484;11.112;2022-11-03T03:15:52;5.50;99.90
2721;DHT22;1368;49.484;11.112;2022-11-03T03:18:28;5.60;99.90
2721;DHT22;1368;49.484;11.112;2022-11-03T03:20:59;5.40;99.90
2721;DHT22;1368;49.484;11.112;2022-11-03T03:23:30;5.10;99.90
2721;DHT22;1368;49.484;11.112;2022-11-03T03:26:04;5.10;99.90
2721;DHT22;1368;49.484;11.112;2022-11-03T03:28:36;5.30;99.90
2721;DHT22;1368;49.484;11.112;2022-11-03T03:31:07;5.40;99.90
2721;DHT22;1368;49.484;11.112;2022-11-03T03:33:34;5.50;99.90
2721;DHT22;1368;49.484;11.112;2022-11-03T03:36:02;5.50;99.90
2721;DHT22;1368;49.484;11.112;2022-11-03T03:38:39;5.50;99.90
2721;DHT22;1368;49.484;11.112;2022-11-03T03:41:07;5.30;99.90
2721;DHT22;1368;49.484;11.112;2022-11-03T03:43:34;5.10;99.90
2721;DHT22;1368;49.484;11.112;2022-11-03T03:46:09;4.90;99.90
2721;DHT22;1368;49.484;11.112;2022-11-03T03:48:36;4.70;99.90
2721;DHT22;1368;49.484;11.112;2022-11-03T03:51:02;4.60;99.90
2721;DHT22;1368;49.484;11.112;2022-11-03T03:53:29;4.50;99.90
2721;DHT22;1368;49.484;11.112;2022-11-03T03:55:55;4.60;99.90
2721;DHT22;1368;49.484;11.112;2022-11-03T03:58:22;4.50;99.90
2721;DHT22;1368;49.484;11.112;2022-11-03T04:00:48;4.70;99.90
2721;DHT22;1368;49.484;11.112;2022-11-03T04:03:22;4.90;99.90
2721;DHT22;1368;49.484;11.112;2022-11-03T04:05:48;5.00;99.90
2721;DHT22;1368;49.484;11.112;2022-11-03T04:08:14;5.20;99.90
2721;DHT22;1368;49.484;11.112;2022-11-03T04:10:40;5.20;99.90
2721;DHT22;1368;49.484;11.112;2022-11-03T04:13:26;5.00;99.90
2721;DHT22;1368;49.484;11.112;2022-11-03T04:16:10;5.10;99.90
2721;DHT22;1368;49.484;11.112;2022-11-03T04:18:55;5.20;99.90
2721;DHT22;1368;49.484;11.112;2022-11-03T04:21:39;5.50;99.90
2721;DHT22;1368;49.484;11.112;2022-11-03T04:24:23;5.50;99.90
2721;DHT22;1368;49.484;11.112;2022-11-03T04:26:49;5.20;99.90
2721;DHT22;1368;49.484;11.112;2022-11-03T04:29:14;5.10;99.90
2721;DHT22;1368;49.484;11.112;2022-11-03T04:31:40;5.20;99.90
2721;DHT22;1368;49.484;11.112;2022-11-03T04:34:11;6.00;99.90
2721;DHT22;1368;49.484;11.112;2022-11-03T04:36:36;5.50;99.90
2721;DHT22;1368;49.484;11.112;2022-11-03T04:39:17;5.30;99.90
2721;DHT22;1368;49.484;11.112;2022-11-03T04:41:43;5.30;99.90
2721;DHT22;1368;49.484;11.112;2022-11-03T04:44:14;5.40;99.90
2721;DHT22;1368;49.484;11.112;2022-11-03T04:46:40;5.40;99.90
2721;DHT22;1368;49.484;11.112;2022-11-03T04:49:10;5.10;99.90
2721;DHT22;1368;49.484;11.112;2022-11-03T04:51:36;5.20;99.90
2721;DHT22;1368;49.484;11.112;2022-11-03T04:54:08;5.20;99.90
2721;DHT22;1368;49.484;11.112;2022-11-03T04:56:35;5.40;99.90
2721;DHT22;1368;49.484;11.112;2022-11-03T04:59:00;5.50;99.90
2721;DHT22;1368;49.484;11.112;2022-11-03T05:01:27;5.40;99.90
2721;DHT22;1368;49.484;11.112;2022-11-03T05:03:54;5.10;99.90
2721;DHT22;1368;49.484;11.112;2022-11-03T05:06:30;5.00;99.90
2721;DHT22;1368;49.484;11.112;2022-11-03T05:08:59;5.10;99.90
2721;DHT22;1368;49.484;11.112;2022-11-03T05:13:58;5.00;99.90
2721;DHT22;1368;49.484;11.112;2022-11-03T05:16:25;4.90;99.90
2721;DHT22;1368;49.484;11.112;2022-11-03T05:18:51;4.90;99.90
2721;DHT22;1368;49.484;11.112;2022-11-03T05:21:18;5.00;99.90
2721;DHT22;1368;49.484;11.112;2022-11-03T05:23:49;5.00;99.90
2721;DHT22;1368;49.484;11.112;2022-11-03T05:26:23;5.30;99.90
2721;DHT22;1368;49.484;11.112;2022-11-03T05:31:30;5.40;99.90
2721;DHT22;1368;49.484;11.112;2022-11-03T05:33:59;5.20;99.90
2721;DHT22;1368;49.484;11.112;2022-11-03T05:36:28;5.20;99.90
2721;DHT22;1368;49.484;11.112;2022-11-03T05:38:58;5.20;99.90
2721;DHT22;1368;49.484;11.112;2022-11-03T05:41:26;5.10;99.90
2721;DHT22;1368;49.484;11.112;2022-11-03T05:43:58;5.10;99.90
2721;DHT22;1368;49.484;11.112;2022-11-03T05:46:30;5.20;99.90
2721;DHT22;1368;49.484;11.112;2022-11-03T05:49:00;5.30;99.90
2721;DHT22;1368;49.484;11.112;2022-11-03T05:51:38;5.30;99.90
2721;DHT22;1368;49.484;11.112;2022-11-03T05:54:06;5.10;99.90
2721;DHT22;1368;49.484;11.112;2022-11-03T05:56:35;5.00;99.90
2721;DHT22;1368;49.484;11.112;2022-11-03T05:59:01;5.00;99.90
2721;DHT22;1368;49.484;11.112;2022-11-03T06:01:32;5.20;99.90
2721;DHT22;1368;49.484;11.112;2022-11-03T06:04:00;5.30;99.90
2721;DHT22;1368;49.484;11.112;2022-11-03T06:06:34;5.30;99.90
2721;DHT22;1368;49.484;11.112;2022-11-03T06:09:13;5.40;99.90
2721;DHT22;1368;49.484;11.112;2022-11-03T06:11:40;5.10;99.90
2721;DHT22;1368;49.484;11.112;2022-11-03T06:14:21;5.00;99.90
2721;DHT22;1368;49.484;11.112;2022-11-03T06:16:52;4.90;99.90
2721;DHT22;1368;49.484;11.112;2022-11-03T06:19:43;4.70;99.90
2721;DHT22;1368;49.484;11.112;2022-11-03T06:22:23;4.80;99.90
2721;DHT22;1368;49.484;11.112;2022-11-03T06:24:51;4.90;99.90
2721;DHT22;1368;49.484;11.112;2022-11-03T06:27:22;5.40;99.90
2721;DHT22;1368;49.484;11.112;2022-11-03T06:30:00;5.00;99.90
2721;DHT22;1368;49.484;11.112;2022-11-03T06:32:26;5.30;99.90
2721;DHT22;1368;49.484;11.112;2022-11-03T06:34:56;5.60;99.90
2721;DHT22;1368;49.484;11.112;2022-11-03T06:37:25;6.00;99.90
2721;DHT22;1368;49.484;11.112;2022-11-03T06:42:36;6.40;99.90
2721;DHT22;1368;49.484;11.112;2022-11-03T06:45:32;6.80;99.90
2721;DHT22;1368;49.484;11.112;2022-11-03T06:48:20;7.00;99.90
2721;DHT22;1368;49.484;11.112;2022-11-03T06:50:46;7.40;99.90
2721;DHT22;1368;49.484;11.112;2022-11-03T06:53:19;7.60;99.90
2721;DHT22;1368;49.484;11.112;2022-11-03T06:55:47;8.20;99.90
2721;DHT22;1368;49.484;11.112;2022-11-03T07:01:18;8.00;99.90
2721;DHT22;1368;49.484;11.112;2022-11-03T07:03:45;8.20;99.90
2721;DHT22;1368;49.484;11.112;2022-11-03T07:06:20;8.20;99.90
2721;DHT22;1368;49.484;11.112;2022-11-03T07:08:52;8.20;99.90
2721;DHT22;1368;49.484;11.112;2022-11-03T07:13:57;8.40;99.90
2721;DHT22;1368;49.484;11.112;2022-11-03T07:16:32;8.40;99.90
2721;DHT22;1368;49.484;11.112;2022-11-03T07:19:01;8.60;99.90
2721;DHT22;1368;49.484;11.112;2022-11-03T07:21:37;8.80;99.90
2721;DHT22;1368;49.484;11.112;2022-11-03T07:26:38;8.80;99.90
2721;DHT22;1368;49.484;11.112;2022-11-03T07:29:04;9.00;99.90
2721;DHT22;1368;49.484;11.112;2022-11-03T07:31:30;9.20;99.90
2721;DHT22;1368;49.484;11.112;2022-11-03T07:33:57;9.50;99.90
2721;DHT22;1368;49.484;11.112;2022-11-03T07:36:25;9.80;99.90
2721;DHT22;1368;49.484;11.112;2022-11-03T07:38:52;10.00;99.90
2721;DHT22;1368;49.484;11.112;2022-11-03T07:41:21;10.20;99.90
2721;DHT22;1368;49.484;11.112;2022-11-03T07:43:53;10.90;99.90
2721;DHT22;1368;49.484;11.112;2022-11-03T07:46:21;10.90;99.90
2721;DHT22;1368;49.484;11.112;2022-11-03T07:48:49;11.40;99.90
2721;DHT22;1368;49.484;11.112;2022-11-03T07:51:25;11.70;99.90
2721;DHT22;1368;49.484;11.112;2022-11-03T07:53:54;12.50;99.90
2721;DHT22;1368;49.484;11.112;2022-11-03T07:56:21;12.50;99.90
2721;DHT22;1368;49.484;11.112;2022-11-03T08:01:55;12.80;99.90
2721;DHT22;1368;49.484;11.112;2022-11-03T08:04:27;12.90;99.90
2721;DHT22;1368;49.484;11.112;2022-11-03T08:06:53;12.80;99.90
2721;DHT22;1368;49.484;11.112;2022-11-03T08:09:19;12.90;99.90
2721;DHT22;1368;49.484;11.112;2022-11-03T08:11:45;12.90;99.90
2721;DHT22;1368;49.484;11.112;2022-11-03T08:14:11;12.30;99.90
2721;DHT22;1368;49.484;11.112;2022-11-03T08:16:37;12.20;99.90
2721;DHT22;1368;49.484;11.112;2022-11-03T08:19:03;11.70;99.90
2721;DHT22;1368;49.484;11.112;2022-11-03T08:21:29;11.60;99.90
2721;DHT22;1368;49.484;11.112;2022-11-03T08:23:55;11.50;99.90
2721;DHT22;1368;49.484;11.112;2022-11-03T08:26:20;11.60;99.90
2721;DHT22;1368;49.484;11.112;2022-11-03T08:28:46;12.00;99.90
2721;DHT22;1368;49.484;11.112;2022-11-03T08:31:12;12.50;99.90
2721;DHT22;1368;49.484;11.112;2022-11-03T08:33:37;12.80;99.90
2721;DHT22;1368;49.484;11.112;2022-11-03T08:36:03;12.70;99.90
2721;DHT22;1368;49.484;11.112;2022-11-03T08:38:29;12.60;99.90
2721;DHT22;1368;49.484;11.112;2022-11-03T08:40:55;13.00;99.90
2721;DHT22;1368;49.484;11.112;2022-11-03T08:43:22;12.70;99.90
2721;DHT22;1368;49.484;11.112;2022-11-03T08:45:48;12.60;99.90
2721;DHT22;1368;49.484;11.112;2022-11-03T08:48:24;12.80;99.90
2721;DHT22;1368;49.484;11.112;2022-11-03T08:50:53;12.60;99.90
2721;DHT22;1368;49.484;11.112;2022-11-03T08:53:23;12.90;99.90
2721;DHT22;1368;49.484;11.112;2022-11-03T08:55:49;12.60;99.90
2721;DHT22;1368;49.484;11.112;2022-11-03T08:58:15;12.60;99.90
2721;DHT22;1368;49.484;11.112;2022-11-03T09:00:40;12.80;99.90
2721;DHT22;1368;49.484;11.112;2022-11-03T09:03:06;13.00;99.90
2721;DHT22;1368;49.484;11.112;2022-11-03T09:05:32;13.00;99.90
2721;DHT22;1368;49.484;11.112;2022-11-03T09:07:57;13.00;99.90
2721;DHT22;1368;49.484;11.112;2022-11-03T09:10:24;13.20;99.90
2721;DHT22;1368;49.484;11.112;2022-11-03T09:12:49;13.20;99.90
2721;DHT22;1368;49.484;11.112;2022-11-03T09:15:15;13.50;99.90
2721;DHT22;1368;49.484;11.112;2022-11-03T09:17:41;13.60;99.90
2721;DHT22;1368;49.484;11.112;2022-11-03T09:20:06;13.70;99.90
2721;DHT22;1368;49.484;11.112;2022-11-03T09:22:32;13.70;99.90
2721;DHT22;1368;49.484;11.112;2022-11-03T09:24:58;13.60;99.90
2721;DHT22;1368;49.484;11.112;2022-11-03T09:27:23;13.40;99.90
2721;DHT22;1368;49.484;11.112;2022-11-03T09:29:49;13.50;99.90
2721;DHT22;1368;49.484;11.112;2022-11-03T09:32:14;13.70;99.90
2721;DHT22;1368;49.484;11.112;2022-11-03T09:34:40;13.80;99.90
2721;DHT22;1368;49.484;11.112;2022-11-03T09:37:06;13.90;99.90
2721;DHT22;1368;49.484;11.112;2022-11-03T09:39:32;14.00;99.90
2721;DHT22;1368;49.484;11.112;2022-11-03T09:41:59;14.20;99.90
2721;DHT22;1368;49.484;11.112;2022-11-03T09:44:27;14.20;99.90
2721;DHT22;1368;49.484;11.112;2022-11-03T09:46:53;14.20;99.90
2721;DHT22;1368;49.484;11.112;2022-11-03T09:49:19;14.10;99.90
2721;DHT22;1368;49.484;11.112;2022-11-03T09:51:45;14.10;99.90
2721;DHT22;1368;49.484;11.112;2022-11-03T09:54:13;14.30;99.90
2721;DHT22;1368;49.484;11.112;2022-11-03T09:56:42;14.70;99.90
2721;DHT22;1368;49.484;11.112;2022-11-03T09:59:20;14.90;99.90
2721;DHT22;1368;49.484;11.112;2022-11-03T10:01:48;15.10;99.90
2721;DHT22;1368;49.484;11.112;2022-11-03T10:04:25;15.20;99.90
2721;DHT22;1368;49.484;11.112;2022-11-03T10:06:54;14.80;99.90
2721;DHT22;1368;49.484;11.112;2022-11-03T10:09:20;14.60;99.90
2721;DHT22;1368;49.484;11.112;2022-11-03T10:11:47;14.50;99.90
2721;DHT22;1368;49.484;11.112;2022-11-03T10:14:15;14.50;99.90
2721;DHT22;1368;49.484;11.112;2022-11-03T10:16:42;14.40;99.90
2721;DHT22;1368;49.484;11.112;2022-11-03T10:21:37;14.20;99.90
2721;DHT22;1368;49.484;11.112;2022-11-03T10:24:04;14.80;99.90
2721;DHT22;1368;49.484;11.112;2022-11-03T10:26:48;14.80;99.90
2721;DHT22;1368;49.484;11.112;2022-11-03T10:29:20;15.10;99.90
2721;DHT22;1368;49.484;11.112;2022-11-03T10:31:47;15.20;99.90
2721;DHT22;1368;49.484;11.112;2022-11-03T10:34:23;15.60;99.90
2721;DHT22;1368;49.484;11.112;2022-11-03T10:36:49;15.10;99.90
2721;DHT22;1368;49.484;11.112;2022-11-03T10:39:27;15.10;99.90
2721;DHT22;1368;49.484;11.112;2022-11-03T10:41:57;15.10;99.90
2721;DHT22;1368;49.484;11.112;2022-11-03T10:44:26;15.30;99.90
2721;DHT22;1368;49.484;11.112;2022-11-03T10:49:32;15.10;99.90
2721;DHT22;1368;49.484;11.112;2022-11-03T10:52:24;14.80;99.90
2721;DHT22;1368;49.484;11.112;2022-11-03T10:54:52;14.60;99.90
2721;DHT22;1368;49.484;11.112;2022-11-03T10:57:19;14.50;99.90
2721;DHT22;1368;49.484;11.112;2022-11-03T10:59:47;14.80;99.90
2721;DHT22;1368;49.484;11.112;2022-11-03T11:04:41;14.30;99.90
2721;DHT22;1368;49.484;11.112;2022-11-03T11:07:23;14.50;99.90
2721;DHT22;1368;49.484;11.112;2022-11-03T11:09:51;15.10;99.90
2721;DHT22;1368;49.484;11.112;2022-11-03T11:12:20;15.20;99.90
2721;DHT22;1368;49.484;11.112;2022-11-03T11:15:00;15.20;99.90
2721;DHT22;1368;49.484;11.112;2022-11-03T11:22:43;15.50;99.90
2721;DHT22;1368;49.484;11.112;2022-11-03T11:25:09;15.20;99.90
2721;DHT22;1368;49.484;11.112;2022-11-03T11:30:03;14.80;99.90
2721;DHT22;1368;49.484;11.112;2022-11-03T11:35:06;15.50;99.90
2721;DHT22;1368;49.484;11.112;2022-11-03T11:37:34;15.80;99.90
2721;DHT22;1368;49.484;11.112;2022-11-03T11:40:00;16.00;99.90
2721;DHT22;1368;49.484;11.112;2022-11-03T11:42:26;16.50;99.90
2721;DHT22;1368;49.484;11.112;2022-11-03T11:44:53;16.40;99.90
2721;DHT22;1368;49.484;11.112;2022-11-03T11:47:42;16.30;99.90
2721;DHT22;1368;49.484;11.112;2022-11-03T11:52:43;16.30;99.90
2721;DHT22;1368;49.484;11.112;2022-11-03T11:55:55;16.20;99.90
2721;DHT22;1368;49.484;11.112;2022-11-03T12:03:29;16.10;99.90
2721;DHT22;1368;49.484;11.112;2022-11-03T12:05:54;16.00;99.90
2721;DHT22;1368;49.484;11.112;2022-11-03T12:08:25;16.30;99.90
2721;DHT22;1368;49.484;11.112;2022-11-03T12:10:55;16.30;99.90
2721;DHT22;1368;49.484;11.112;2022-11-03T12:16:06;16.70;99.90
2721;DHT22;1368;49.484;11.112;2022-11-03T12:21:07;16.60;99.90
2721;DHT22;1368;49.484;11.112;2022-11-03T12:26:01;16.60;99.90
2721;DHT22;1368;49.484;11.112;2022-11-03T12:28:33;16.80;99.90
2721;DHT22;1368;49.484;11.112;2022-11-03T12:30:59;16.60;99.90
2721;DHT22;1368;49.484;11.112;2022-11-03T12:33:26;16.30;99.90
2721;DHT22;1368;49.484;11.112;2022-11-03T12:35:52;15.90;99.90
2721;DHT22;1368;49.484;11.112;2022-11-03T12:38:18;15.80;99.90
2721;DHT22;1368;49.484;11.112;2022-11-03T12:40:43;15.60;99.90
2721;DHT22;1368;49.484;11.112;2022-11-03T12:43:09;15.60;99.90
2721;DHT22;1368;49.484;11.112;2022-11-03T12:45:34;16.30;99.90
2721;DHT22;1368;49.484;11.112;2022-11-03T12:48:00;15.90;99.90
2721;DHT22;1368;49.484;11.112;2022-11-03T12:50:25;16.10;99.90
2721;DHT22;1368;49.484;11.112;2022-11-03T12:52:51;16.70;99.90
2721;DHT22;1368;49.484;11.112;2022-11-03T12:55:17;16.10;99.90
2721;DHT22;1368;49.484;11.112;2022-11-03T12:57:42;15.80;99.90
2721;DHT22;1368;49.484;11.112;2022-11-03T13:00:10;15.50;99.90
2721;DHT22;1368;49.484;11.112;2022-11-03T13:02:37;15.60;99.90
2721;DHT22;1368;49.484;11.112;2022-11-03T13:05:03;15.70;99.90
2721;DHT22;1368;49.484;11.112;2022-11-03T13:07:29;15.90;99.90
2721;DHT22;1368;49.484;11.112;2022-11-03T13:09:54;15.90;99.90
2721;DHT22;1368;49.484;11.112;2022-11-03T13:12:20;15.80;99.90
2721;DHT22;1368;49.484;11.112;2022-11-03T13:15:04;16.30;99.90
2721;DHT22;1368;49.484;11.112;2022-11-03T13:17:30;16.00;99.90
2721;DHT22;1368;49.484;11.112;2022-11-03T13:19:56;16.00;99.90
2721;DHT22;1368;49.484;11.112;2022-11-03T13:22:22;15.90;99.90
2721;DHT22;1368;49.484;11.112;2022-11-03T13:24:47;16.10;99.90
2721;DHT22;1368;49.484;11.112;2022-11-03T13:27:13;15.90;99.90
2721;DHT22;1368;49.484;11.112;2022-11-03T13:29:39;15.80;99.90
2721;DHT22;1368;49.484;11.112;2022-11-03T13:32:04;15.80;99.90
2721;DHT22;1368;49.484;11.112;2022-11-03T13:34:30;15.60;99.90
2721;DHT22;1368;49.484;11.112;2022-11-03T13:36:56;15.30;99.90
2721;DHT22;1368;49.484;11.112;2022-11-03T13:39:23;15.00;99.90
2721;DHT22;1368;49.484;11.112;2022-11-03T13:41:48;14.90;99.90
2721;DHT22;1368;49.484;11.112;2022-11-03T13:44:14;15.10;99.90
2721;DHT22;1368;49.484;11.112;2022-11-03T13:46:39;15.10;99.90
2721;DHT22;1368;49.484;11.112;2022-11-03T13:49:05;15.30;99.90
2721;DHT22;1368;49.484;11.112;2022-11-03T13:51:30;15.10;99.90
2721;DHT22;1368;49.484;11.112;2022-11-03T13:53:56;15.30;99.90
2721;DHT22;1368;49.484;11.112;2022-11-03T13:56:21;14.90;99.90
2721;DHT22;1368;49.484;11.112;2022-11-03T13:58:47;15.10;99.90
2721;DHT22;1368;49.484;11.112;2022-11-03T14:01:13;14.90;99.90
2721;DHT22;1368;49.484;11.112;2022-11-03T14:03:38;14.90;99.90
2721;DHT22;1368;49.484;11.112;2022-11-03T14:06:04;14.90;99.90
2721;DHT22;1368;49.484;11.112;2022-11-03T14:08:30;15.10;99.90
2721;DHT22;1368;49.484;11.112;2022-11-03T14:10:55;15.00;99.90
2721;DHT22;1368;49.484;11.112;2022-11-03T14:13:21;15.40;99.90
2721;DHT22;1368;49.484;11.112;2022-11-03T14:15:46;15.00;99.90
2721;DHT22;1368;49.484;11.112;2022-11-03T14:18:12;14.90;99.90
2721;DHT22;1368;49.484;11.112;2022-11-03T14:20:37;14.90;99.90
2721;DHT22;1368;49.484;11.112;2022-11-03T14:23:03;14.80;99.90
2721;DHT22;1368;49.484;11.112;2022-11-03T14:25:28;14.50;99.90
2721;DHT22;1368;49.484;11.112;2022-11-03T14:27:54;14.50;99.90
2721;DHT22;1368;49.484;11.112;2022-11-03T14:30:19;14.70;99.90
2721;DHT22;1368;49.484;11.112;2022-11-03T14:32:45;14.50;99.90
2721;DHT22;1368;49.484;11.112;2022-11-03T14:35:11;14.50;99.90
2721;DHT22;1368;49.484;11.112;2022-11-03T14:37:36;14.50;99.90
2721;DHT22;1368;49.484;11.112;2022-11-03T14:40:03;14.50;99.90
2721;DHT22;1368;49.484;11.112;2022-11-03T14:42:29;14.40;99.90
2721;DHT22;1368;49.484;11.112;2022-11-03T14:44:54;14.70;99.90
2721;DHT22;1368;49.484;11.112;2022-11-03T14:47:20;14.80;99.90
2721;DHT22;1368;49.484;11.112;2022-11-03T14:49:46;14.80;99.90
2721;DHT22;1368;49.484;11.112;2022-11-03T14:52:13;14.70;99.90
2721;DHT22;1368;49.484;11.112;2022-11-03T14:54:39;14.50;99.90
2721;DHT22;1368;49.484;11.112;2022-11-03T14:57:05;14.20;99.90
2721;DHT22;1368;49.484;11.112;2022-11-03T14:59:31;14.00;99.90
2721;DHT22;1368;49.484;11.112;2022-11-03T15:01:57;14.00;99.90
2721;DHT22;1368;49.484;11.112;2022-11-03T15:04:23;14.50;99.90
2721;DHT22;1368;49.484;11.112;2022-11-03T15:06:49;14.20;99.90
2721;DHT22;1368;49.484;11.112;2022-11-03T15:09:15;14.10;99.90
2721;DHT22;1368;49.484;11.112;2022-11-03T15:11:41;13.80;99.90
2721;DHT22;1368;49.484;11.112;2022-11-03T15:14:07;13.80;99.90
2721;DHT22;1368;49.484;11.112;2022-11-03T15:16:33;14.00;99.90
2721;DHT22;1368;49.484;11.112;2022-11-03T15:19:01;13.70;99.90
2721;DHT22;1368;49.484;11.112;2022-11-03T15:21:30;13.90;99.90
2721;DHT22;1368;49.484;11.112;2022-11-03T15:23:56;13.60;99.90
2721;DHT22;1368;49.484;11.112;2022-11-03T15:26:22;13.50;99.90
2721;DHT22;1368;49.484;11.112;2022-11-03T15:28:47;13.50;99.90
2721;DHT22;1368;49.484;11.112;2022-11-03T15:31:13;13.50;99.90
2721;DHT22;1368;49.484;11.112;2022-11-03T15:33:39;13.60;99.90
2721;DHT22;1368;49.484;11.112;2022-11-03T15:36:05;13.50;99.90
2721;DHT22;1368;49.484;11.112;2022-11-03T15:38:31;13.30;99.90
2721;DHT22;1368;49.484;11.112;2022-11-03T15:40:57;13.50;99.90
2721;DHT22;1368;49.484;11.112;2022-11-03T15:43:44;13.50;99.90
2721;DHT22;1368;49.484;11.112;2022-11-03T15:46:10;13.40;99.90
2721;DHT22;1368;49.484;11.112;2022-11-03T15:48:36;13.20;99.90
2721;DHT22;1368;49.484;11.112;2022-11-03T15:51:02;13.70;99.90
2721;DHT22;1368;49.484;11.112;2022-11-03T15:53:28;13.50;99.90
2721;DHT22;1368;49.484;11.112;2022-11-03T15:55:54;13.40;99.90
2721;DHT22;1368;49.484;11.112;2022-11-03T15:58:19;13.60;99.90
2721;DHT22;1368;49.484;11.112;2022-11-03T16:00:45;13.20;99.90
2721;DHT22;1368;49.484;11.112;2022-11-03T16:03:10;13.40;99.90
2721;DHT22;1368;49.484;11.112;2022-11-03T16:05:36;13.50;99.90
2721;DHT22;1368;49.484;11.112;2022-11-03T16:08:01;13.50;99.90
2721;DHT22;1368;49.484;11.112;2022-11-03T16:10:27;13.50;99.90
2721;DHT22;1368;49.484;11.112;2022-11-03T16:12:52;13.60;99.90
2721;DHT22;1368;49.484;11.112;2022-11-03T16:15:18;14.00;99.90
2721;DHT22;1368;49.484;11.112;2022-11-03T16:17:43;13.70;99.90
2721;DHT22;1368;49.484;11.112;2022-11-03T16:20:09;13.70;99.90
2721;DHT22;1368;49.484;11.112;2022-11-03T16:22:35;13.70;99.90
2721;DHT22;1368;49.484;11.112;2022-11-03T16:25:01;13.50;99.90
2721;DHT22;1368;49.484;11.112;2022-11-03T16:27:27;13.20;99.90
2721;DHT22;1368;49.484;11.112;2022-11-03T16:29:52;13.50;99.90
2721;DHT22;1368;49.484;11.112;2022-11-03T16:32:20;13.20;99.90
2721;DHT22;1368;49.484;11.112;2022-11-03T16:34:46;13.20;99.90
2721;DHT22;1368;49.484;11.112;2022-11-03T16:37:13;13.00;99.90
2721;DHT22;1368;49.484;11.112;2022-11-03T16:39:39;13.10;99.90
2721;DHT22;1368;49.484;11.112;2022-11-03T16:42:04;13.60;99.90
2721;DHT22;1368;49.484;11.112;2022-11-03T16:44:30;13.10;99.90
2721;DHT22;1368;49.484;11.112;2022-11-03T16:46:56;13.00;99.90
2721;DHT22;1368;49.484;11.112;2022-11-03T16:49:22;12.80;99.90
2721;DHT22;1368;49.484;11.112;2022-11-03T16:51:47;12.70;99.90
2721;DHT22;1368;49.484;11.112;2022-11-03T16:54:13;12.60;99.90
2721;DHT22;1368;49.484;11.112;2022-11-03T16:56:38;12.60;99.90
2721;DHT22;1368;49.484;11.112;2022-11-03T16:59:04;12.70;99.90
2721;DHT22;1368;49.484;11.112;2022-11-03T17:01:30;12.30;99.90
2721;DHT22;1368;49.484;11.112;2022-11-03T17:03:55;12.30;99.90
2721;DHT22;1368;49.484;11.112;2022-11-03T17:06:21;12.40;99.90